Time;durP1;ratioP1;P1;durP2;ratioP2;P2;SDS_P1;SDS_P2;PMS_P1;PMS_P2;Temp;Humidity;BMP_temperature;BMP_pressure;BME280_temperature;BME280_humidity;BME280_pressure;Samples;Min_cycle;Max_cycle;Signal;HPM_P1;HPM_P2
2022/05/16 00:00:43;;;;;;;4.87;1.90;;;;;;;;;;1770373;81;21120;-66
2022/05/16 00:03:13;;;;;;;5.25;1.98;;;;;;;;;;1759306;81;21049;-66
2022/05/16 00:05:39;;;;;;;2.52;1.80;;;;;;;;;;1760084;81;20997;-66
2022/05/16 00:08:05;;;;;;;2.80;1.70;;;;;;;;;;1770122;80;21041;-65
2022/05/16 00:10:31;;;;;;;2.77;1.85;;;;;;;;;;1754225;81;21123;-66
2022/05/16 00:12:59;;;;;;;2.17;1.60;;;;;;;;;;1748008;82;21017;-66
2022/05/16 00:15:26;;;;;;;2.45;1.92;;;;;;;;;;1747837;82;21080;-66
2022/05/16 00:17:52;;;;;;;1.90;1.70;;;;;;;;;;1749197;81;20985;-66
2022/05/16 00:20:19;;;;;;;2.50;1.70;;;;;;;;;;1778599;80;21045;-66
2022/05/16 00:22:46;;;;;;;2.52;1.95;;;;;;;;;;1776357;81;21060;-66
2022/05/16 00:25:13;;;;;;;2.83;1.70;;;;;;;;;;1756806;81;21524;-66
2022/05/16 00:27:39;;;;;;;4.08;1.80;;;;;;;;;;1750528;81;21009;-66
2022/05/16 00:30:06;;;;;;;2.85;1.67;;;;;;;;;;1748895;81;21064;-66
2022/05/16 00:32:32;;;;;;;4.60;1.77;;;;;;;;;;1773077;81;21032;-66
2022/05/16 00:34:58;;;;;;;2.30;1.70;;;;;;;;;;1752833;81;21028;-66
2022/05/16 00:37:24;;;;;;;2.10;1.82;;;;;;;;;;1771175;81;21028;-66
2022/05/16 00:39:50;;;;;;;2.75;1.70;;;;;;;;;;1748156;81;21248;-67
2022/05/16 00:42:17;;;;;;;4.92;1.82;;;;;;;;;;1748838;81;21028;-66
2022/05/16 00:44:44;;;;;;;2.40;1.67;;;;;;;;;;1747873;82;21072;-66
2022/05/16 00:47:10;;;;;;;2.15;1.70;;;;;;;;;;1748083;81;21068;-66
2022/05/16 00:49:36;;;;;;;3.35;2.17;;;;;;;;;;1748044;82;21028;-66
2022/05/16 00:52:09;;;;;;;3.40;1.52;;;;;;;;;;1752093;81;21036;-66
2022/05/16 00:54:41;;;;;;;3.15;1.72;;;;;;;;;;1747930;82;21567;-66
2022/05/16 00:57:09;;;;;;;3.40;1.80;;;;;;;;;;1747966;82;21076;-66
2022/05/16 00:59:44;;;;;;;4.12;1.95;;;;;;;;;;1754544;81;21072;-66
2022/05/16 01:04:55;;;;;;;2.52;1.70;;;;;;;;;;1666170;79;73077;-68
2022/05/16 01:07:34;;;;;;;3.30;1.90;;;;;;;;;;1639626;87;21041;-67
2022/05/16 01:10:01;;;;;;;4.05;2.00;;;;;;;;;;1611621;87;21014;-67
2022/05/16 01:12:33;;;;;;;2.55;1.70;;;;;;;;;;1640687;86;21066;-67
2022/05/16 01:15:00;;;;;;;2.85;1.80;;;;;;;;;;1638189;88;21025;-67
2022/05/16 01:17:26;;;;;;;3.40;1.92;;;;;;;;;;1610922;87;21536;-67
2022/05/16 01:19:52;;;;;;;2.25;1.70;;;;;;;;;;1638414;86;21045;-67
2022/05/16 01:22:23;;;;;;;3.10;1.95;;;;;;;;;;1653022;86;21082;-67
2022/05/16 01:24:53;;;;;;;3.60;1.80;;;;;;;;;;1646790;87;21038;-67
2022/05/16 01:27:19;;;;;;;8.73;3.27;;;;;;;;;;1703208;84;21048;-67
2022/05/16 01:29:45;;;;;;;9.15;3.47;;;;;;;;;;1705222;84;21499;-67
2022/05/16 01:32:11;;;;;;;8.65;3.20;;;;;;;;;;1695452;84;21039;-67
2022/05/16 01:34:37;;;;;;;8.23;3.75;;;;;;;;;;1668841;84;21060;-67
2022/05/16 01:37:04;;;;;;;7.85;3.90;;;;;;;;;;1668584;86;21362;-67
2022/05/16 01:39:30;;;;;;;5.50;2.87;;;;;;;;;;1668739;86;21019;-67
2022/05/16 01:41:56;;;;;;;6.37;2.70;;;;;;;;;;1677315;84;21033;-67
2022/05/16 01:44:22;;;;;;;6.67;3.10;;;;;;;;;;1705127;84;21552;-67
2022/05/16 01:46:48;;;;;;;6.35;2.85;;;;;;;;;;1705701;84;21036;-67
2022/05/16 01:49:14;;;;;;;6.72;2.80;;;;;;;;;;1688240;84;20994;-67
2022/05/16 01:51:41;;;;;;;3.35;2.15;;;;;;;;;;1670273;84;21065;-67
2022/05/16 01:54:07;;;;;;;5.37;3.25;;;;;;;;;;1705674;84;21009;-67
2022/05/16 01:56:33;;;;;;;4.65;2.30;;;;;;;;;;1705785;83;20993;-67
2022/05/16 01:59:00;;;;;;;5.17;2.83;;;;;;;;;;1697229;84;21068;-67
2022/05/16 02:01:26;;;;;;;2.83;2.20;;;;;;;;;;1689297;84;21007;-67
2022/05/16 02:03:52;;;;;;;3.62;2.22;;;;;;;;;;1670771;84;21060;-67
2022/05/16 02:06:18;;;;;;;3.15;2.20;;;;;;;;;;1674862;86;21496;-67
2022/05/16 02:08:45;;;;;;;3.50;2.17;;;;;;;;;;1674685;86;21021;-67
2022/05/16 02:11:11;;;;;;;6.70;3.00;;;;;;;;;;1677616;84;21056;-67
2022/05/16 02:13:40;;;;;;;4.55;2.52;;;;;;;;;;1675566;84;20969;-69
2022/05/16 02:16:06;;;;;;;17.45;7.20;;;;;;;;;;1675311;84;21056;-67
2022/05/16 02:18:32;;;;;;;28.27;11.08;;;;;;;;;;1674860;86;21053;-67
2022/05/16 02:26:29;;;;;;;13.98;6.35;;;;;;;;;;1680115;84;21021;-67
2022/05/16 02:28:55;;;;;;;10.43;5.40;;;;;;;;;;1677857;85;21033;-67
2022/05/16 02:31:21;;;;;;;10.78;4.78;;;;;;;;;;1678187;85;21044;-67
2022/05/16 02:33:48;;;;;;;7.28;3.33;;;;;;;;;;1678031;85;21025;-67
2022/05/16 02:36:14;;;;;;;8.53;3.70;;;;;;;;;;1672409;85;20997;-67
2022/05/16 02:38:40;;;;;;;5.85;3.10;;;;;;;;;;1672805;86;21013;-67
2022/05/16 02:41:06;;;;;;;4.22;2.72;;;;;;;;;;1674486;85;21045;-66
2022/05/16 02:43:32;;;;;;;5.90;2.62;;;;;;;;;;1678086;85;21044;-67
2022/05/16 02:45:58;;;;;;;4.67;2.77;;;;;;;;;;1678096;85;21036;-67
2022/05/16 02:48:26;;;;;;;7.22;3.33;;;;;;;;;;1678167;85;21547;-67
2022/05/16 02:50:52;;;;;;;5.95;2.80;;;;;;;;;;1665769;85;21488;-66
2022/05/16 02:53:18;;;;;;;10.03;3.40;;;;;;;;;;1672793;86;21045;-66
2022/05/16 02:55:44;;;;;;;7.05;3.55;;;;;;;;;;1675993;85;20989;-66
2022/05/16 02:58:10;;;;;;;6.10;3.35;;;;;;;;;;1678157;85;21053;-67
2022/05/16 03:00:37;;;;;;;7.40;3.37;;;;;;;;;;1662227;85;21523;-66
2022/05/16 03:03:03;;;;;;;5.85;2.98;;;;;;;;;;1676047;86;21012;-67
2022/05/16 03:05:30;;;;;;;6.90;3.62;;;;;;;;;;1675870;84;21016;-66
2022/05/16 03:07:56;;;;;;;8.30;3.42;;;;;;;;;;1674753;86;21568;-66
2022/05/16 03:10:22;;;;;;;8.60;3.40;;;;;;;;;;1674654;86;21061;-67
2022/05/16 03:12:49;;;;;;;7.42;3.22;;;;;;;;;;1674834;86;21033;-67
2022/05/16 03:15:15;;;;;;;5.65;3.33;;;;;;;;;;1674993;84;21021;-67
2022/05/16 03:17:42;;;;;;;4.70;2.80;;;;;;;;;;1674730;86;21013;-67
2022/05/16 03:20:10;;;;;;;5.67;2.87;;;;;;;;;;1674935;85;21460;-67
2022/05/16 03:22:36;;;;;;;6.00;3.12;;;;;;;;;;1675296;86;21044;-67
2022/05/16 03:25:02;;;;;;;5.45;2.75;;;;;;;;;;1675641;86;21021;-67
2022/05/16 03:27:29;;;;;;;5.87;2.27;;;;;;;;;;1675595;86;20997;-67
2022/05/16 03:29:55;;;;;;;4.87;2.50;;;;;;;;;;1675532;86;21064;-67
2022/05/16 03:32:21;;;;;;;6.08;2.47;;;;;;;;;;1673067;86;20982;-67
2022/05/16 03:34:51;;;;;;;4.20;2.67;;;;;;;;;;1672607;86;21013;-67
2022/05/16 03:37:17;;;;;;;5.05;2.40;;;;;;;;;;1672751;85;21061;-67
2022/05/16 03:42:29;;;;;;;6.53;2.12;;;;;;;;;;1677414;84;21029;-67
2022/05/16 03:44:55;;;;;;;3.87;2.25;;;;;;;;;;1675525;86;21009;-66
2022/05/16 03:47:23;;;;;;;4.55;2.47;;;;;;;;;;1676093;85;21493;-67
2022/05/16 03:49:49;;;;;;;6.95;2.30;;;;;;;;;;1647081;86;21012;-67
2022/05/16 03:52:16;;;;;;;4.53;2.45;;;;;;;;;;1676033;86;21535;-68
2022/05/16 03:54:43;;;;;;;4.35;2.08;;;;;;;;;;1676126;86;21027;-68
2022/05/16 03:57:09;;;;;;;5.00;2.70;;;;;;;;;;1676054;86;21000;-68
2022/05/16 03:59:35;;;;;;;5.87;2.30;;;;;;;;;;1676144;84;21048;-68
2022/05/16 04:02:01;;;;;;;3.58;2.40;;;;;;;;;;1676037;86;21016;-68
2022/05/16 04:04:27;;;;;;;4.30;2.58;;;;;;;;;;1673746;84;21144;-69
2022/05/16 04:06:54;;;;;;;7.55;2.52;;;;;;;;;;1673192;84;21596;-69
2022/05/16 04:09:20;;;;;;;4.35;2.50;;;;;;;;;;1673514;86;21117;-68
2022/05/16 04:11:46;;;;;;;4.25;2.50;;;;;;;;;;1673867;86;21005;-69
2022/05/16 04:14:13;;;;;;;5.20;2.47;;;;;;;;;;1672958;84;21090;-68
2022/05/16 04:16:38;;;;;;;3.05;2.05;;;;;;;;;;1672619;86;21520;-69
2022/05/16 04:19:07;;;;;;;3.55;2.20;;;;;;;;;;1672583;86;21069;-69
2022/05/16 04:21:36;;;;;;;3.50;1.77;;;;;;;;;;1672858;86;21044;-69
2022/05/16 04:24:02;;;;;;;3.50;2.17;;;;;;;;;;1671908;86;21045;-69
2022/05/16 04:26:28;;;;;;;3.45;2.05;;;;;;;;;;1669297;86;21021;-69
2022/05/16 04:28:54;;;;;;;4.03;1.90;;;;;;;;;;1673899;86;21778;-69
2022/05/16 04:31:20;;;;;;;4.87;2.10;;;;;;;;;;1673826;86;21001;-69
2022/05/16 04:33:47;;;;;;;3.58;2.05;;;;;;;;;;1681499;84;21504;-69
2022/05/16 04:36:13;;;;;;;3.12;2.00;;;;;;;;;;1691253;84;21151;-67
2022/05/16 04:38:39;;;;;;;3.50;2.37;;;;;;;;;;1656566;86;20997;-69
2022/05/16 04:43:50;;;;;;;8.35;3.05;;;;;;;;;;1672379;86;21021;-68
2022/05/16 04:46:16;;;;;;;5.42;3.12;;;;;;;;;;1672355;86;21080;-68
2022/05/16 04:48:43;;;;;;;6.83;3.87;;;;;;;;;;1672466;86;21017;-67
2022/05/16 04:51:10;;;;;;;5.50;3.92;;;;;;;;;;1672410;86;21017;-69
2022/05/16 04:53:38;;;;;;;5.87;3.42;;;;;;;;;;1672480;86;21033;-68
2022/05/16 04:56:05;;;;;;;5.85;3.17;;;;;;;;;;1672414;86;21077;-68
2022/05/16 04:58:33;;;;;;;7.62;3.30;;;;;;;;;;1672391;86;21057;-69
2022/05/16 05:00:59;;;;;;;3.02;2.20;;;;;;;;;;1672317;86;20997;-68
2022/05/16 05:03:25;;;;;;;5.25;2.30;;;;;;;;;;1672435;85;21120;-68
2022/05/16 05:05:52;;;;;;;4.45;2.47;;;;;;;;;;1673425;86;20997;-68
2022/05/16 05:08:19;;;;;;;4.80;2.95;;;;;;;;;;1674374;86;21025;-69
2022/05/16 05:16:15;;;;;;;5.08;1.82;;;;;;;;;;1674395;86;21061;-69
2022/05/16 05:18:42;;;;;;;3.10;1.65;;;;;;;;;;1674448;86;21017;-68
2022/05/16 05:21:08;;;;;;;3.40;1.80;;;;;;;;;;1674218;86;21048;-68
2022/05/16 05:23:34;;;;;;;6.25;2.22;;;;;;;;;;1674322;86;21057;-68
2022/05/16 05:26:02;;;;;;;2.87;1.80;;;;;;;;;;1674156;86;21567;-68
2022/05/16 05:28:28;;;;;;;7.30;1.90;;;;;;;;;;1674308;86;21025;-68
2022/05/16 05:30:55;;;;;;;2.62;1.75;;;;;;;;;;1674323;86;21025;-68
2022/05/16 05:33:21;;;;;;;5.42;1.82;;;;;;;;;;1674308;86;21026;-68
2022/05/16 05:35:47;;;;;;;19.10;2.92;;;;;;;;;;1674292;86;21005;-68
2022/05/16 05:38:15;;;;;;;2.37;1.60;;;;;;;;;;1674303;86;21057;-68
2022/05/16 05:40:42;;;;;;;1.95;1.40;;;;;;;;;;1674329;86;21049;-68
2022/05/16 05:43:08;;;;;;;2.70;1.40;;;;;;;;;;1674377;86;21013;-68
2022/05/16 05:45:35;;;;;;;2.83;1.50;;;;;;;;;;1674401;86;21053;-68
2022/05/16 05:48:01;;;;;;;2.08;1.52;;;;;;;;;;1674238;86;21081;-68
2022/05/16 05:50:27;;;;;;;3.75;1.80;;;;;;;;;;1674391;86;21527;-68
2022/05/16 05:52:53;;;;;;;3.00;1.52;;;;;;;;;;1674369;86;21005;-68
2022/05/16 05:55:19;;;;;;;2.67;1.45;;;;;;;;;;1674269;86;21017;-68
2022/05/16 05:57:45;;;;;;;5.83;1.95;;;;;;;;;;1674426;86;21041;-68
2022/05/16 06:00:11;;;;;;;2.60;1.65;;;;;;;;;;1674233;86;21477;-69
2022/05/16 06:02:40;;;;;;;4.08;1.62;;;;;;;;;;1674249;86;21057;-68
2022/05/16 06:05:08;;;;;;;2.27;1.52;;;;;;;;;;1673991;85;21125;-69
2022/05/16 06:07:34;;;;;;;3.05;1.60;;;;;;;;;;1674263;86;21607;-68
2022/05/16 06:10:01;;;;;;;6.47;1.65;;;;;;;;;;1674212;86;21021;-68
2022/05/16 06:12:27;;;;;;;2.25;1.70;;;;;;;;;;1674296;86;21068;-69
2022/05/16 06:14:53;;;;;;;1.70;1.20;;;;;;;;;;1674347;86;21528;-68
2022/05/16 06:17:20;;;;;;;2.37;1.50;;;;;;;;;;1674386;86;20985;-68
2022/05/16 06:19:46;;;;;;;5.17;1.57;;;;;;;;;;1674253;86;21035;-68
2022/05/16 06:22:12;;;;;;;2.40;1.60;;;;;;;;;;1674353;86;21084;-68
2022/05/16 06:25:57;;;;;;;2.08;1.50;;;;;;;;;;1819614;79;22913;-68
2022/05/16 06:28:24;;;;;;;3.52;1.32;;;;;;;;;;1793098;80;21063;-67
2022/05/16 06:30:51;;;;;;;2.70;1.60;;;;;;;;;;1793098;80;21543;-68
2022/05/16 06:33:18;;;;;;;4.05;1.72;;;;;;;;;;1793035;80;21083;-68
2022/05/16 06:35:45;;;;;;;1.95;1.32;;;;;;;;;;1792995;80;21531;-70
2022/05/16 06:38:12;;;;;;;2.45;1.60;;;;;;;;;;1793146;80;21036;-68
2022/05/16 06:40:39;;;;;;;2.02;1.37;;;;;;;;;;1792687;80;21047;-69
2022/05/16 06:43:06;;;;;;;2.52;1.30;;;;;;;;;;1792928;80;21002;-69
2022/05/16 06:45:33;;;;;;;2.33;1.35;;;;;;;;;;1793002;80;21048;-68
2022/05/16 06:48:00;;;;;;;1.72;1.40;;;;;;;;;;1792854;80;21028;-68
2022/05/16 06:50:26;;;;;;;10.95;2.15;;;;;;;;;;1793038;80;21051;-69
2022/05/16 06:52:53;;;;;;;1.92;1.30;;;;;;;;;;1792798;80;21008;-67
2022/05/16 06:55:19;;;;;;;3.83;1.45;;;;;;;;;;1793068;80;21508;-68
2022/05/16 06:57:45;;;;;;;3.25;1.70;;;;;;;;;;1793350;80;21043;-68
2022/05/16 07:00:11;;;;;;;4.25;1.47;;;;;;;;;;1785947;80;21063;-68
2022/05/16 07:02:38;;;;;;;2.42;1.50;;;;;;;;;;1775226;80;21567;-69
2022/05/16 07:05:04;;;;;;;1.95;1.37;;;;;;;;;;1729353;81;21196;-69
2022/05/16 07:07:31;;;;;;;4.10;1.42;;;;;;;;;;1757031;81;21489;-68
2022/05/16 07:09:59;;;;;;;3.02;1.45;;;;;;;;;;1759105;81;21056;-68
2022/05/16 07:12:24;;;;;;;3.08;1.20;;;;;;;;;;1759770;81;21031;-68
2022/05/16 07:14:51;;;;;;;3.10;1.35;;;;;;;;;;1726967;83;21519;-68
2022/05/16 07:17:17;;;;;;;1.65;1.30;;;;;;;;;;1726501;83;21524;-69
2022/05/16 07:19:43;;;;;;;2.70;1.60;;;;;;;;;;1726511;82;21087;-69
2022/05/16 07:22:10;;;;;;;3.62;1.40;;;;;;;;;;1719618;83;21046;-68
2022/05/16 07:24:37;;;;;;;4.08;1.42;;;;;;;;;;1723795;82;21538;-68
2022/05/16 07:29:48;;;;;;;7.20;1.40;;;;;;;;;;1724361;83;21049;-68
2022/05/16 07:32:15;;;;;;;4.50;1.65;;;;;;;;;;1737097;82;20994;-67
2022/05/16 07:34:41;;;;;;;3.67;1.30;;;;;;;;;;1737459;82;21014;-68
2022/05/16 07:37:08;;;;;;;1.72;1.20;;;;;;;;;;1739439;82;21002;-68
2022/05/16 07:39:36;;;;;;;3.10;1.60;;;;;;;;;;1728459;82;21000;-68
2022/05/16 07:42:03;;;;;;;1.55;1.37;;;;;;;;;;1723720;83;21066;-68
2022/05/16 07:44:29;;;;;;;3.47;1.45;;;;;;;;;;1707827;83;21041;-68
2022/05/16 07:46:56;;;;;;;2.02;1.40;;;;;;;;;;1723709;83;21077;-68
2022/05/16 07:49:23;;;;;;;4.15;1.60;;;;;;;;;;1736482;83;21089;-68
2022/05/16 07:51:49;;;;;;;2.98;1.30;;;;;;;;;;1736685;83;21025;-69
2022/05/16 07:54:16;;;;;;;3.62;1.50;;;;;;;;;;1736427;83;21058;-68
2022/05/16 07:56:42;;;;;;;4.75;1.50;;;;;;;;;;1736535;83;21606;-68
2022/05/16 07:59:09;;;;;;;5.00;1.60;;;;;;;;;;1732998;82;21588;-68
2022/05/16 08:01:36;;;;;;;4.30;1.40;;;;;;;;;;1723646;82;21013;-68
2022/05/16 08:04:04;;;;;;;2.60;1.37;;;;;;;;;;1693181;84;22211;-69
2022/05/16 08:06:31;;;;;;;3.92;1.72;;;;;;;;;;1720492;83;21063;-68
2022/05/16 08:11:44;;;;;;;4.12;1.50;;;;;;;;;;1711673;84;21028;-67
2022/05/16 08:14:11;;;;;;;1.98;1.35;;;;;;;;;;1723858;82;21066;-67
2022/05/16 08:16:37;;;;;;;2.87;1.42;;;;;;;;;;1723614;83;21092;-68
2022/05/16 08:19:04;;;;;;;2.85;1.67;;;;;;;;;;1723757;83;21072;-69
2022/05/16 08:21:31;;;;;;;2.95;1.60;;;;;;;;;;1723696;83;21096;-68
2022/05/16 08:24:02;;;;;;;2.67;1.50;;;;;;;;;;1723763;83;21041;-68
2022/05/16 08:26:29;;;;;;;2.50;1.50;;;;;;;;;;1723944;83;21081;-68
2022/05/16 08:28:55;;;;;;;2.15;1.30;;;;;;;;;;1723867;83;21017;-68
2022/05/16 08:31:21;;;;;;;2.83;1.50;;;;;;;;;;1723875;83;21081;-68
2022/05/16 08:33:48;;;;;;;2.05;1.50;;;;;;;;;;1723646;83;21097;-67
2022/05/16 08:41:46;;;;;;;2.80;1.40;;;;;;;;;;1723930;83;21631;-68
2022/05/16 08:44:14;;;;;;;3.47;1.70;;;;;;;;;;1723852;83;21049;-67
2022/05/16 08:46:48;;;;;;;2.12;1.47;;;;;;;;;;1723818;83;21107;-67
2022/05/16 08:49:17;;;;;;;2.42;1.55;;;;;;;;;;1722210;83;21139;-68
2022/05/16 08:51:44;;;;;;;1.55;1.40;;;;;;;;;;1723052;83;21576;-68
2022/05/16 08:54:12;;;;;;;2.08;1.50;;;;;;;;;;1723659;83;21056;-68
2022/05/16 08:56:42;;;;;;;2.83;1.75;;;;;;;;;;1723568;83;21076;-68
2022/05/16 08:59:24;;;;;;;4.47;1.90;;;;;;;;;;1723782;83;21528;-67
2022/05/16 09:01:56;;;;;;;4.12;2.00;;;;;;;;;;1724040;83;21600;-67
2022/05/16 09:04:23;;;;;;;3.60;2.33;;;;;;;;;;1723487;83;21139;-68
2022/05/16 09:06:51;;;;;;;3.50;1.62;;;;;;;;;;1723904;83;21030;-67
2022/05/16 09:09:18;;;;;;;3.45;1.60;;;;;;;;;;1723881;83;21053;-68
2022/05/16 09:11:46;;;;;;;1.85;1.42;;;;;;;;;;1723665;83;21077;-67
2022/05/16 09:14:14;;;;;;;2.05;1.40;;;;;;;;;;1723789;83;21040;-68
2022/05/16 09:16:50;;;;;;;2.12;1.30;;;;;;;;;;1722259;83;21104;-67
2022/05/16 09:19:21;;;;;;;1.70;1.20;;;;;;;;;;1723411;83;21068;-68
2022/05/16 09:21:52;;;;;;;2.55;1.45;;;;;;;;;;1723638;83;21122;-68
2022/05/16 09:24:20;;;;;;;2.95;1.42;;;;;;;;;;1723700;83;21561;-68
2022/05/16 09:26:48;;;;;;;2.50;1.87;;;;;;;;;;1722829;83;21084;-68
2022/05/16 09:29:24;;;;;;;1.70;1.40;;;;;;;;;;1723579;83;21061;-68
2022/05/16 09:31:51;;;;;;;1.95;1.20;;;;;;;;;;1723716;83;21037;-68
2022/05/16 09:34:17;;;;;;;2.35;1.20;;;;;;;;;;1723403;83;21092;-68
2022/05/16 09:36:46;;;;;;;1.62;1.20;;;;;;;;;;1723752;83;21041;-69
2022/05/16 09:39:13;;;;;;;4.55;1.45;;;;;;;;;;1723582;83;21580;-69
2022/05/16 09:41:47;;;;;;;4.35;1.40;;;;;;;;;;1723382;83;21045;-70
2022/05/16 09:44:21;;;;;;;2.77;1.32;;;;;;;;;;1723014;83;21064;-69
2022/05/16 09:46:47;;;;;;;2.15;1.42;;;;;;;;;;1723429;83;21545;-69
2022/05/16 09:49:15;;;;;;;2.83;1.52;;;;;;;;;;1723831;83;21041;-68
2022/05/16 09:51:51;;;;;;;2.33;1.20;;;;;;;;;;1722739;83;21048;-67
2022/05/16 09:54:27;;;;;;;2.98;1.10;;;;;;;;;;1723783;83;21041;-68
2022/05/16 09:56:55;;;;;;;2.72;1.20;;;;;;;;;;1723561;83;21026;-68
2022/05/16 09:59:42;;;;;;;1.62;1.27;;;;;;;;;;1723797;83;21029;-68
2022/05/16 10:02:16;;;;;;;2.22;1.40;;;;;;;;;;1723703;83;21049;-68
2022/05/16 10:04:43;;;;;;;2.92;1.42;;;;;;;;;;1723667;83;21085;-68
2022/05/16 10:07:09;;;;;;;3.22;1.55;;;;;;;;;;1723762;83;21009;-68
2022/05/16 10:09:47;;;;;;;3.22;1.20;;;;;;;;;;1723881;83;21068;-68
2022/05/16 10:12:14;;;;;;;1.32;1.10;;;;;;;;;;1723755;83;21043;-68
2022/05/16 10:14:41;;;;;;;1.98;1.20;;;;;;;;;;1723960;83;21053;-68
2022/05/16 10:17:09;;;;;;;1.75;1.30;;;;;;;;;;1723430;83;21071;-68
2022/05/16 10:19:36;;;;;;;1.82;1.30;;;;;;;;;;1723707;83;21021;-67
2022/05/16 10:22:04;;;;;;;2.08;1.47;;;;;;;;;;1723727;83;21018;-67
2022/05/16 10:24:33;;;;;;;2.42;1.32;;;;;;;;;;1723812;83;21017;-67
2022/05/16 10:27:00;;;;;;;6.15;1.60;;;;;;;;;;1711061;83;21129;-68
2022/05/16 10:29:27;;;;;;;1.50;1.27;;;;;;;;;;1710709;84;21065;-67
2022/05/16 10:34:42;;;;;;;1.35;1.10;;;;;;;;;;1710867;84;21225;-68
2022/05/16 10:37:08;;;;;;;2.65;1.30;;;;;;;;;;1710742;84;21065;-68
2022/05/16 10:39:34;;;;;;;1.67;1.27;;;;;;;;;;1710820;84;21081;-68
2022/05/16 10:42:21;;;;;;;1.30;1.00;;;;;;;;;;1682087;85;21034;-68
2022/05/16 10:44:58;;;;;;;2.35;1.30;;;;;;;;;;1745926;82;21041;-68
2022/05/16 10:47:31;;;;;;;1.47;1.12;;;;;;;;;;1746069;82;22166;-68
2022/05/16 10:50:02;;;;;;;1.85;1.20;;;;;;;;;;1746268;82;20979;-67
2022/05/16 10:52:30;;;;;;;2.22;1.37;;;;;;;;;;1746116;82;21552;-67
2022/05/16 10:54:58;;;;;;;1.22;1.10;;;;;;;;;;1746150;82;21576;-67
2022/05/16 10:57:38;;;;;;;2.02;1.50;;;;;;;;;;1746159;82;21045;-68
2022/05/16 11:00:11;;;;;;;2.50;1.30;;;;;;;;;;1744655;82;21092;-67
2022/05/16 11:02:49;;;;;;;1.92;1.40;;;;;;;;;;1746212;82;21013;-68
2022/05/16 11:05:20;;;;;;;2.58;1.75;;;;;;;;;;1746127;82;21237;-68
2022/05/16 11:08:03;;;;;;;2.52;1.25;;;;;;;;;;1746116;82;21524;-68
2022/05/16 11:10:31;;;;;;;2.83;1.50;;;;;;;;;;1745889;82;21132;-68
2022/05/16 11:13:00;;;;;;;2.37;1.45;;;;;;;;;;1746275;82;20990;-68
2022/05/16 11:15:28;;;;;;;1.82;1.40;;;;;;;;;;1746183;82;21026;-68
2022/05/16 11:18:07;;;;;;;1.95;1.20;;;;;;;;;;1746069;82;21616;-68
2022/05/16 11:20:38;;;;;;;4.30;1.52;;;;;;;;;;1746475;82;21069;-67
2022/05/16 11:23:09;;;;;;;1.52;1.00;;;;;;;;;;1746145;82;21014;-67
2022/05/16 11:25:43;;;;;;;3.90;1.30;;;;;;;;;;1743690;82;21038;-67
2022/05/16 11:28:27;;;;;;;3.75;1.30;;;;;;;;;;1742279;82;21105;-67
2022/05/16 11:31:04;;;;;;;2.17;1.32;;;;;;;;;;1743535;82;21085;-67
2022/05/16 11:33:46;;;;;;;3.33;1.45;;;;;;;;;;1743929;82;20990;-67
2022/05/16 11:36:25;;;;;;;3.02;1.35;;;;;;;;;;1743661;82;21018;-67
2022/05/16 11:39:05;;;;;;;2.12;1.52;;;;;;;;;;1743795;82;21041;-68
2022/05/16 11:41:34;;;;;;;4.42;1.40;;;;;;;;;;1743545;82;21073;-66
2022/05/16 11:44:20;;;;;;;1.62;1.37;;;;;;;;;;1743486;82;21120;-67
2022/05/16 11:47:07;;;;;;;1.92;1.37;;;;;;;;;;1743631;82;21041;-67
2022/05/16 11:49:44;;;;;;;3.08;1.55;;;;;;;;;;1679666;85;21158;-67
2022/05/16 11:52:12;;;;;;;3.60;1.60;;;;;;;;;;1679748;85;21062;-67
2022/05/16 11:54:41;;;;;;;1.75;1.40;;;;;;;;;;1707161;82;21513;-67
2022/05/16 12:02:45;;;;;;;1.80;1.10;;;;;;;;;;1743348;82;21565;-67
2022/05/16 12:05:13;;;;;;;1.70;1.15;;;;;;;;;;1743407;82;21580;-68
2022/05/16 12:07:40;;;;;;;3.15;1.30;;;;;;;;;;1743552;82;21021;-67
2022/05/16 12:10:12;;;;;;;2.25;1.50;;;;;;;;;;1743530;82;21564;-67
2022/05/16 12:12:45;;;;;;;3.72;1.32;;;;;;;;;;1743422;82;21520;-68
2022/05/16 12:15:19;;;;;;;2.95;1.25;;;;;;;;;;1743677;82;21065;-68
2022/05/16 12:17:52;;;;;;;4.37;1.40;;;;;;;;;;1743434;82;21084;-67
2022/05/16 12:20:36;;;;;;;1.98;1.60;;;;;;;;;;1743404;82;21104;-68
2022/05/16 12:23:04;;;;;;;3.33;1.40;;;;;;;;;;1743242;82;21072;-68
2022/05/16 12:25:32;;;;;;;2.08;0.90;;;;;;;;;;1743604;82;21129;-69
2022/05/16 12:28:16;;;;;;;1.65;1.30;;;;;;;;;;1748020;82;21540;-69
2022/05/16 12:30:54;;;;;;;4.97;1.40;;;;;;;;;;1752137;82;21017;-67
2022/05/16 12:33:34;;;;;;;3.92;1.50;;;;;;;;;;1751950;82;21037;-67
2022/05/16 12:36:03;;;;;;;1.40;1.27;;;;;;;;;;1725215;82;21048;-67
2022/05/16 12:38:29;;;;;;;2.33;1.60;;;;;;;;;;1751747;82;21096;-69
2022/05/16 12:41:14;;;;;;;2.40;1.45;;;;;;;;;;1752094;82;20985;-68
2022/05/16 12:44:00;;;;;;;3.92;1.72;;;;;;;;;;1751816;82;21116;-68
2022/05/16 12:46:43;;;;;;;2.50;1.57;;;;;;;;;;1751998;82;21623;-68
2022/05/16 12:49:20;;;;;;;3.27;1.90;;;;;;;;;;1751748;82;21069;-67
2022/05/16 12:51:48;;;;;;;1.75;1.40;;;;;;;;;;1752080;82;21145;-67
2022/05/16 12:54:22;;;;;;;2.27;1.50;;;;;;;;;;1751861;82;21033;-69
2022/05/16 12:56:49;;;;;;;1.75;1.35;;;;;;;;;;1752228;82;21076;-69
2022/05/16 12:59:30;;;;;;;4.33;1.40;;;;;;;;;;1752022;82;21061;-68
2022/05/16 13:02:13;;;;;;;2.08;1.20;;;;;;;;;;1710196;82;21076;-68
2022/05/16 13:04:46;;;;;;;2.30;1.40;;;;;;;;;;1752075;82;21560;-68
2022/05/16 13:07:25;;;;;;;4.27;1.30;;;;;;;;;;1752426;82;21045;-68
2022/05/16 13:09:54;;;;;;;2.37;1.32;;;;;;;;;;1751989;82;21108;-68
2022/05/16 13:12:37;;;;;;;3.08;1.40;;;;;;;;;;1752044;82;21009;-68
2022/05/16 13:15:09;;;;;;;2.85;1.42;;;;;;;;;;1751184;82;21049;-68
2022/05/16 13:17:49;;;;;;;4.47;1.47;;;;;;;;;;1751953;82;21041;-69
2022/05/16 13:20:17;;;;;;;2.90;1.72;;;;;;;;;;1752012;82;21029;-68
2022/05/16 13:22:45;;;;;;;4.15;1.80;;;;;;;;;;1751897;82;21052;-68
2022/05/16 13:25:12;;;;;;;4.30;1.77;;;;;;;;;;1751749;82;21429;-68
2022/05/16 13:30:24;;;;;;;2.87;1.80;;;;;;;;;;1738160;82;21069;-68
2022/05/16 13:32:50;;;;;;;4.62;1.77;;;;;;;;;;1737699;82;21532;-67
2022/05/16 13:35:30;;;;;;;3.42;1.57;;;;;;;;;;1738002;82;21564;-68
2022/05/16 13:37:57;;;;;;;4.40;1.67;;;;;;;;;;1737979;82;21082;-67
2022/05/16 13:40:28;;;;;;;2.65;1.40;;;;;;;;;;1737904;82;21632;-68
2022/05/16 13:42:54;;;;;;;5.60;2.00;;;;;;;;;;1737573;82;21049;-66
2022/05/16 13:45:24;;;;;;;5.33;1.92;;;;;;;;;;1738115;82;20991;-68
2022/05/16 13:47:50;;;;;;;2.90;1.30;;;;;;;;;;1737752;82;21120;-70
2022/05/16 13:50:21;;;;;;;3.22;1.27;;;;;;;;;;1737946;82;20994;-68
2022/05/16 13:52:48;;;;;;;2.95;1.57;;;;;;;;;;1737126;82;21116;-69
2022/05/16 13:55:14;;;;;;;4.28;1.70;;;;;;;;;;1737957;82;21506;-69
2022/05/16 13:57:41;;;;;;;5.10;2.00;;;;;;;;;;1737819;82;21028;-69
2022/05/16 14:00:15;;;;;;;4.87;2.40;;;;;;;;;;1738233;82;21120;-68
2022/05/16 14:02:41;;;;;;;11.08;2.92;;;;;;;;;;1737651;82;21105;-68
2022/05/16 14:05:10;;;;;;;5.78;2.20;;;;;;;;;;1737864;81;21077;-69
2022/05/16 14:07:36;;;;;;;3.08;1.70;;;;;;;;;;1735844;82;21097;-69
2022/05/16 14:10:10;;;;;;;2.75;1.70;;;;;;;;;;1737555;82;21104;-67
2022/05/16 14:12:38;;;;;;;3.60;1.80;;;;;;;;;;1738050;82;21029;-69
2022/05/16 14:15:08;;;;;;;3.77;1.57;;;;;;;;;;1737999;82;21108;-69
2022/05/16 14:17:36;;;;;;;6.30;2.27;;;;;;;;;;1736864;82;21560;-68
2022/05/16 14:20:11;;;;;;;5.72;2.10;;;;;;;;;;1738036;82;21014;-69
2022/05/16 14:22:39;;;;;;;4.05;2.12;;;;;;;;;;1711098;82;21058;-69
2022/05/16 14:25:10;;;;;;;3.45;1.85;;;;;;;;;;1738161;82;21073;-69
2022/05/16 14:27:39;;;;;;;2.65;1.70;;;;;;;;;;1738675;82;21057;-69
2022/05/16 14:30:06;;;;;;;4.60;2.40;;;;;;;;;;1746225;82;21049;-69
2022/05/16 14:32:34;;;;;;;6.03;3.37;;;;;;;;;;1745756;82;21125;-70
2022/05/16 14:35:05;;;;;;;6.90;3.70;;;;;;;;;;1717061;82;21659;-69
2022/05/16 14:37:31;;;;;;;5.28;3.20;;;;;;;;;;1746081;82;21072;-68
2022/05/16 14:40:02;;;;;;;7.42;3.27;;;;;;;;;;1746124;82;21061;-68
2022/05/16 14:42:33;;;;;;;7.15;3.10;;;;;;;;;;1745838;82;21076;-68
2022/05/16 14:45:10;;;;;;;4.97;3.15;;;;;;;;;;1746168;82;21037;-68
2022/05/16 14:47:41;;;;;;;5.53;3.15;;;;;;;;;;1746121;82;21117;-68
2022/05/16 14:50:09;;;;;;;8.25;3.37;;;;;;;;;;1746405;82;21052;-69
2022/05/16 14:52:35;;;;;;;7.37;4.22;;;;;;;;;;1746200;82;21053;-70
2022/05/16 14:55:09;;;;;;;6.97;3.67;;;;;;;;;;1746141;82;21053;-69
2022/05/16 14:57:37;;;;;;;5.75;3.27;;;;;;;;;;1745946;82;21604;-68
2022/05/16 15:00:04;;;;;;;5.33;3.20;;;;;;;;;;1745554;82;21268;-68
2022/05/16 15:05:15;;;;;;;5.55;2.72;;;;;;;;;;1746322;82;21045;-68
2022/05/16 15:07:42;;;;;;;7.37;3.72;;;;;;;;;;1745848;82;21069;-68
2022/05/16 15:10:09;;;;;;;6.47;3.33;;;;;;;;;;1746382;82;21403;-68
2022/05/16 15:12:35;;;;;;;5.45;3.00;;;;;;;;;;1746033;82;21006;-68
2022/05/16 15:15:02;;;;;;;6.62;2.90;;;;;;;;;;1746052;82;21064;-68
2022/05/16 15:17:29;;;;;;;6.17;3.08;;;;;;;;;;1746182;82;21069;-68
2022/05/16 15:19:55;;;;;;;4.87;2.80;;;;;;;;;;1746313;82;21067;-68
2022/05/16 15:22:21;;;;;;;6.87;3.35;;;;;;;;;;1746041;82;21064;-69
2022/05/16 15:24:54;;;;;;;5.33;2.72;;;;;;;;;;1745854;82;21022;-67
2022/05/16 15:27:20;;;;;;;6.92;3.40;;;;;;;;;;1746397;82;21080;-67
2022/05/16 15:29:47;;;;;;;7.30;3.92;;;;;;;;;;1738375;82;21034;-68
2022/05/16 15:32:15;;;;;;;5.42;3.08;;;;;;;;;;1738041;82;21092;-67
2022/05/16 15:34:42;;;;;;;6.53;3.47;;;;;;;;;;1738150;82;21046;-67
2022/05/16 15:37:10;;;;;;;6.80;3.40;;;;;;;;;;1738095;82;21600;-68